Lance Creek, Wyoming
Current Conditions -  °F | °C
As of 4:53 AM on Thursday 29 Jan 2015 (Local Time) from KDGW Reporting Station
Broken Clouds Broken Clouds  
Wind Chill: 24°   Ceiling: 5000
Heat Index: 29°   Visibility: 10mi
Dew Point: 22°   Wind: 5mph
Humidity: 75%   Direction: 320°NW
Pressure: 30.44"   Gusts: NA
Location:  43.03°N, 104.64°W
Report Text: KDGW 291153Z AUTO 32004KT 10SM BKN050 BKN070 M02/M06 A3044 RMK AO2 SLP328 70010 T10171056 10022 21017 51007
Loading
Personal Weather Stations






























Interactive Weather Map New forecast layout! Learn more

10-Day Weather Forecast

Advertisements
Track Severe Weather on mobile